sensor_id;sensor_type;location;lat;lon;timestamp;temperature;humidity
15564;DHT22;7883;52.554;13.364;2023-02-15T00:01:30;6.50;99.90
15564;DHT22;7883;52.554;13.364;2023-02-15T00:03:58;6.40;99.90
15564;DHT22;7883;52.554;13.364;2023-02-15T00:06:25;6.40;99.90
15564;DHT22;7883;52.554;13.364;2023-02-15T00:08:53;6.50;99.90
15564;DHT22;7883;52.554;13.364;2023-02-15T00:11:20;6.40;99.90
15564;DHT22;7883;52.554;13.364;2023-02-15T00:14:05;6.40;99.90
15564;DHT22;7883;52.554;13.364;2023-02-15T00:16:35;6.50;99.90
15564;DHT22;7883;52.554;13.364;2023-02-15T00:19:03;6.50;99.90
15564;DHT22;7883;52.554;13.364;2023-02-15T00:21:31;6.50;99.90
15564;DHT22;7883;52.554;13.364;2023-02-15T00:24:00;6.40;99.90
15564;DHT22;7883;52.554;13.364;2023-02-15T00:26:27;6.40;99.90
15564;DHT22;7883;52.554;13.364;2023-02-15T00:28:55;6.40;99.90
15564;DHT22;7883;52.554;13.364;2023-02-15T00:31:24;6.30;99.90
15564;DHT22;7883;52.554;13.364;2023-02-15T00:33:52;6.30;99.90
15564;DHT22;7883;52.554;13.364;2023-02-15T00:36:20;6.30;99.90
15564;DHT22;7883;52.554;13.364;2023-02-15T00:38:47;6.20;99.90
15564;DHT22;7883;52.554;13.364;2023-02-15T00:41:13;6.20;99.90
15564;DHT22;7883;52.554;13.364;2023-02-15T00:43:40;6.30;99.90
15564;DHT22;7883;52.554;13.364;2023-02-15T00:46:07;6.30;99.90
15564;DHT22;7883;52.554;13.364;2023-02-15T00:48:34;6.20;99.90
15564;DHT22;7883;52.554;13.364;2023-02-15T00:51:02;6.20;99.90
15564;DHT22;7883;52.554;13.364;2023-02-15T00:53:30;6.10;99.90
15564;DHT22;7883;52.554;13.364;2023-02-15T00:55:57;6.10;99.90
15564;DHT22;7883;52.554;13.364;2023-02-15T00:58:25;6.10;99.90
15564;DHT22;7883;52.554;13.364;2023-02-15T01:00:52;6.10;99.90
15564;DHT22;7883;52.554;13.364;2023-02-15T01:03:20;6.10;99.90
15564;DHT22;7883;52.554;13.364;2023-02-15T01:05:48;6.20;99.90
15564;DHT22;7883;52.554;13.364;2023-02-15T01:08:17;6.20;99.90
15564;DHT22;7883;52.554;13.364;2023-02-15T01:10:44;6.20;99.90
15564;DHT22;7883;52.554;13.364;2023-02-15T01:13:14;6.20;99.90
15564;DHT22;7883;52.554;13.364;2023-02-15T01:15:43;6.20;99.90
15564;DHT22;7883;52.554;13.364;2023-02-15T01:18:10;6.20;99.90
15564;DHT22;7883;52.554;13.364;2023-02-15T01:20:39;6.20;99.90
15564;DHT22;7883;52.554;13.364;2023-02-15T01:23:07;6.10;99.90
15564;DHT22;7883;52.554;13.364;2023-02-15T01:25:36;6.10;99.90
15564;DHT22;7883;52.554;13.364;2023-02-15T01:28:04;6.10;99.90
15564;DHT22;7883;52.554;13.364;2023-02-15T01:30:31;6.10;99.90
15564;DHT22;7883;52.554;13.364;2023-02-15T01:32:59;6.10;99.90
15564;DHT22;7883;52.554;13.364;2023-02-15T01:35:27;6.10;99.90
15564;DHT22;7883;52.554;13.364;2023-02-15T01:37:54;6.10;99.90
15564;DHT22;7883;52.554;13.364;2023-02-15T01:40:22;6.10;99.90
15564;DHT22;7883;52.554;13.364;2023-02-15T01:42:52;6.00;99.90
15564;DHT22;7883;52.554;13.364;2023-02-15T01:45:22;5.80;99.90
15564;DHT22;7883;52.554;13.364;2023-02-15T01:47:52;5.60;99.90
15564;DHT22;7883;52.554;13.364;2023-02-15T01:50:23;5.40;99.90
15564;DHT22;7883;52.554;13.364;2023-02-15T01:52:55;5.40;99.90
15564;DHT22;7883;52.554;13.364;2023-02-15T01:55:26;5.40;99.90
15564;DHT22;7883;52.554;13.364;2023-02-15T01:57:56;5.40;99.90
15564;DHT22;7883;52.554;13.364;2023-02-15T02:00:23;5.50;99.90
15564;DHT22;7883;52.554;13.364;2023-02-15T02:02:52;5.50;99.90
15564;DHT22;7883;52.554;13.364;2023-02-15T02:05:20;5.50;99.90
15564;DHT22;7883;52.554;13.364;2023-02-15T02:07:48;5.50;99.90
15564;DHT22;7883;52.554;13.364;2023-02-15T02:10:19;5.50;99.90
15564;DHT22;7883;52.554;13.364;2023-02-15T02:12:50;5.40;99.90
15564;DHT22;7883;52.554;13.364;2023-02-15T02:15:22;5.40;99.90
15564;DHT22;7883;52.554;13.364;2023-02-15T02:17:59;5.40;99.90
15564;DHT22;7883;52.554;13.364;2023-02-15T02:23:42;5.50;99.90
15564;DHT22;7883;52.554;13.364;2023-02-15T02:29:40;5.50;99.90
15564;DHT22;7883;52.554;13.364;2023-02-15T02:35:12;5.60;99.90
15564;DHT22;7883;52.554;13.364;2023-02-15T02:37:47;5.60;99.90
15564;DHT22;7883;52.554;13.364;2023-02-15T02:40:23;5.70;99.90
15564;DHT22;7883;52.554;13.364;2023-02-15T02:42:58;5.70;99.90
15564;DHT22;7883;52.554;13.364;2023-02-15T02:45:31;5.70;99.90
15564;DHT22;7883;52.554;13.364;2023-02-15T02:48:02;5.70;99.90
15564;DHT22;7883;52.554;13.364;2023-02-15T02:50:31;5.70;99.90
15564;DHT22;7883;52.554;13.364;2023-02-15T02:52:59;5.60;99.90
15564;DHT22;7883;52.554;13.364;2023-02-15T02:55:30;5.60;99.90
15564;DHT22;7883;52.554;13.364;2023-02-15T02:58:02;5.60;99.90
15564;DHT22;7883;52.554;13.364;2023-02-15T03:00:32;5.50;99.90
15564;DHT22;7883;52.554;13.364;2023-02-15T03:03:04;5.50;99.90
15564;DHT22;7883;52.554;13.364;2023-02-15T03:05:37;5.50;99.90
15564;DHT22;7883;52.554;13.364;2023-02-15T03:08:07;5.50;99.90
15564;DHT22;7883;52.554;13.364;2023-02-15T03:10:37;5.50;99.90
15564;DHT22;7883;52.554;13.364;2023-02-15T03:13:06;5.50;99.90
15564;DHT22;7883;52.554;13.364;2023-02-15T03:15:38;5.50;99.90
15564;DHT22;7883;52.554;13.364;2023-02-15T03:18:28;5.50;99.90
15564;DHT22;7883;52.554;13.364;2023-02-15T03:21:01;5.40;99.90
15564;DHT22;7883;52.554;13.364;2023-02-15T03:23:29;5.50;99.90
15564;DHT22;7883;52.554;13.364;2023-02-15T03:25:59;5.50;99.90
15564;DHT22;7883;52.554;13.364;2023-02-15T03:28:29;5.50;99.90
15564;DHT22;7883;52.554;13.364;2023-02-15T03:31:01;5.50;99.90
15564;DHT22;7883;52.554;13.364;2023-02-15T03:33:29;5.40;99.90
15564;DHT22;7883;52.554;13.364;2023-02-15T03:36:02;5.40;99.90
15564;DHT22;7883;52.554;13.364;2023-02-15T03:38:36;5.40;99.90
15564;DHT22;7883;52.554;13.364;2023-02-15T03:41:05;5.30;99.90
15564;DHT22;7883;52.554;13.364;2023-02-15T03:43:42;5.30;99.90
15564;DHT22;7883;52.554;13.364;2023-02-15T03:46:15;5.20;99.90
15564;DHT22;7883;52.554;13.364;2023-02-15T03:48:48;5.20;99.90
15564;DHT22;7883;52.554;13.364;2023-02-15T03:51:21;5.10;99.90
15564;DHT22;7883;52.554;13.364;2023-02-15T03:54:02;5.10;99.90
15564;DHT22;7883;52.554;13.364;2023-02-15T03:56:30;5.10;99.90
15564;DHT22;7883;52.554;13.364;2023-02-15T03:58:57;5.10;99.90
15564;DHT22;7883;52.554;13.364;2023-02-15T04:01:47;5.10;99.90
15564;DHT22;7883;52.554;13.364;2023-02-15T04:04:26;5.00;99.90
15564;DHT22;7883;52.554;13.364;2023-02-15T04:06:57;5.10;99.90
15564;DHT22;7883;52.554;13.364;2023-02-15T04:09:24;5.00;99.90
15564;DHT22;7883;52.554;13.364;2023-02-15T04:12:08;5.00;99.90
15564;DHT22;7883;52.554;13.364;2023-02-15T04:14:36;5.00;99.90
15564;DHT22;7883;52.554;13.364;2023-02-15T04:17:20;5.00;99.90
15564;DHT22;7883;52.554;13.364;2023-02-15T04:19:48;5.00;99.90
15564;DHT22;7883;52.554;13.364;2023-02-15T04:22:33;5.00;99.90
15564;DHT22;7883;52.554;13.364;2023-02-15T04:25:18;5.00;99.90
15564;DHT22;7883;52.554;13.364;2023-02-15T04:27:47;5.00;99.90
15564;DHT22;7883;52.554;13.364;2023-02-15T04:30:15;4.90;99.90
15564;DHT22;7883;52.554;13.364;2023-02-15T04:32:43;4.90;99.90
15564;DHT22;7883;52.554;13.364;2023-02-15T04:35:10;4.90;99.90
15564;DHT22;7883;52.554;13.364;2023-02-15T04:37:39;4.90;99.90
15564;DHT22;7883;52.554;13.364;2023-02-15T04:40:07;5.00;99.90
15564;DHT22;7883;52.554;13.364;2023-02-15T04:42:34;5.00;99.90
15564;DHT22;7883;52.554;13.364;2023-02-15T04:45:01;4.90;99.90
15564;DHT22;7883;52.554;13.364;2023-02-15T04:47:28;4.70;99.90
15564;DHT22;7883;52.554;13.364;2023-02-15T04:49:55;4.70;99.90
15564;DHT22;7883;52.554;13.364;2023-02-15T04:52:22;4.80;99.90
15564;DHT22;7883;52.554;13.364;2023-02-15T04:54:51;4.80;99.90
15564;DHT22;7883;52.554;13.364;2023-02-15T04:57:18;4.70;99.90
15564;DHT22;7883;52.554;13.364;2023-02-15T04:59:44;4.70;99.90
15564;DHT22;7883;52.554;13.364;2023-02-15T05:02:11;4.80;99.90
15564;DHT22;7883;52.554;13.364;2023-02-15T05:04:38;4.70;99.90
15564;DHT22;7883;52.554;13.364;2023-02-15T05:07:05;4.70;99.90
15564;DHT22;7883;52.554;13.364;2023-02-15T05:09:32;4.60;99.90
15564;DHT22;7883;52.554;13.364;2023-02-15T05:12:00;4.60;99.90
15564;DHT22;7883;52.554;13.364;2023-02-15T05:14:28;4.60;99.90
15564;DHT22;7883;52.554;13.364;2023-02-15T05:16:55;4.60;99.90
15564;DHT22;7883;52.554;13.364;2023-02-15T05:19:24;4.50;99.90
15564;DHT22;7883;52.554;13.364;2023-02-15T05:21:51;4.50;99.90
15564;DHT22;7883;52.554;13.364;2023-02-15T05:24:17;4.40;99.90
15564;DHT22;7883;52.554;13.364;2023-02-15T05:27:03;4.40;99.90
15564;DHT22;7883;52.554;13.364;2023-02-15T05:29:47;4.50;99.90
15564;DHT22;7883;52.554;13.364;2023-02-15T05:32:14;4.50;99.90
15564;DHT22;7883;52.554;13.364;2023-02-15T05:34:41;4.50;99.90
15564;DHT22;7883;52.554;13.364;2023-02-15T05:37:08;4.40;99.90
15564;DHT22;7883;52.554;13.364;2023-02-15T05:39:35;4.50;99.90
15564;DHT22;7883;52.554;13.364;2023-02-15T05:42:03;4.40;99.90
15564;DHT22;7883;52.554;13.364;2023-02-15T05:44:31;4.40;99.90
15564;DHT22;7883;52.554;13.364;2023-02-15T05:46:57;4.40;99.90
15564;DHT22;7883;52.554;13.364;2023-02-15T05:49:24;4.40;99.90
15564;DHT22;7883;52.554;13.364;2023-02-15T05:51:51;4.40;99.90
15564;DHT22;7883;52.554;13.364;2023-02-15T05:54:18;4.40;99.90
15564;DHT22;7883;52.554;13.364;2023-02-15T05:56:45;4.30;99.90
15564;DHT22;7883;52.554;13.364;2023-02-15T05:59:13;4.40;99.90
15564;DHT22;7883;52.554;13.364;2023-02-15T06:01:41;4.30;99.90
15564;DHT22;7883;52.554;13.364;2023-02-15T06:04:08;4.20;99.90
15564;DHT22;7883;52.554;13.364;2023-02-15T06:06:36;4.10;99.90
15564;DHT22;7883;52.554;13.364;2023-02-15T06:09:02;4.10;99.90
15564;DHT22;7883;52.554;13.364;2023-02-15T06:11:29;4.10;99.90
15564;DHT22;7883;52.554;13.364;2023-02-15T06:13:56;4.10;99.90
15564;DHT22;7883;52.554;13.364;2023-02-15T06:16:25;4.10;99.90
15564;DHT22;7883;52.554;13.364;2023-02-15T06:18:51;4.20;99.90
15564;DHT22;7883;52.554;13.364;2023-02-15T06:21:19;4.20;99.90
15564;DHT22;7883;52.554;13.364;2023-02-15T06:23:46;4.10;99.90
15564;DHT22;7883;52.554;13.364;2023-02-15T06:26:13;4.10;99.90
15564;DHT22;7883;52.554;13.364;2023-02-15T06:28:41;4.00;99.90
15564;DHT22;7883;52.554;13.364;2023-02-15T06:31:08;4.00;99.90
15564;DHT22;7883;52.554;13.364;2023-02-15T06:33:37;4.00;99.90
15564;DHT22;7883;52.554;13.364;2023-02-15T06:36:04;4.00;99.90
15564;DHT22;7883;52.554;13.364;2023-02-15T06:38:31;4.00;99.90
15564;DHT22;7883;52.554;13.364;2023-02-15T06:40:58;4.00;99.90
15564;DHT22;7883;52.554;13.364;2023-02-15T06:43:25;4.10;99.90
15564;DHT22;7883;52.554;13.364;2023-02-15T06:45:52;4.10;99.90
15564;DHT22;7883;52.554;13.364;2023-02-15T06:48:19;4.10;99.90
15564;DHT22;7883;52.554;13.364;2023-02-15T06:50:47;4.10;99.90
15564;DHT22;7883;52.554;13.364;2023-02-15T06:53:14;4.00;99.90
15564;DHT22;7883;52.554;13.364;2023-02-15T06:55:41;4.00;99.90
15564;DHT22;7883;52.554;13.364;2023-02-15T06:58:08;4.10;99.90
15564;DHT22;7883;52.554;13.364;2023-02-15T07:00:35;4.20;99.90
15564;DHT22;7883;52.554;13.364;2023-02-15T07:03:02;4.20;99.90
15564;DHT22;7883;52.554;13.364;2023-02-15T07:05:32;4.10;99.90
15564;DHT22;7883;52.554;13.364;2023-02-15T07:08:01;4.10;99.90
15564;DHT22;7883;52.554;13.364;2023-02-15T07:10:28;4.10;99.90
15564;DHT22;7883;52.554;13.364;2023-02-15T07:12:57;4.00;99.90
15564;DHT22;7883;52.554;13.364;2023-02-15T07:15:23;4.00;99.90
15564;DHT22;7883;52.554;13.364;2023-02-15T07:17:50;3.90;99.90
15564;DHT22;7883;52.554;13.364;2023-02-15T07:20:19;4.00;99.90
15564;DHT22;7883;52.554;13.364;2023-02-15T07:22:47;3.90;99.90
15564;DHT22;7883;52.554;13.364;2023-02-15T07:25:15;4.00;99.90
15564;DHT22;7883;52.554;13.364;2023-02-15T07:27:43;4.00;99.90
15564;DHT22;7883;52.554;13.364;2023-02-15T07:30:12;4.00;99.90
15564;DHT22;7883;52.554;13.364;2023-02-15T07:32:39;4.00;99.90
15564;DHT22;7883;52.554;13.364;2023-02-15T07:35:27;4.00;99.90
15564;DHT22;7883;52.554;13.364;2023-02-15T07:37:54;4.10;99.90
15564;DHT22;7883;52.554;13.364;2023-02-15T07:40:22;4.00;99.90
15564;DHT22;7883;52.554;13.364;2023-02-15T07:42:49;3.90;99.90
15564;DHT22;7883;52.554;13.364;2023-02-15T07:45:18;4.00;99.90
15564;DHT22;7883;52.554;13.364;2023-02-15T07:47:45;4.10;99.90
15564;DHT22;7883;52.554;13.364;2023-02-15T07:50:15;4.00;99.90
15564;DHT22;7883;52.554;13.364;2023-02-15T07:52:42;4.10;99.90
15564;DHT22;7883;52.554;13.364;2023-02-15T07:55:08;4.00;99.90
15564;DHT22;7883;52.554;13.364;2023-02-15T07:57:42;4.10;99.90
15564;DHT22;7883;52.554;13.364;2023-02-15T08:00:10;4.00;99.90
15564;DHT22;7883;52.554;13.364;2023-02-15T08:02:38;4.00;99.90
15564;DHT22;7883;52.554;13.364;2023-02-15T08:05:06;4.10;99.90
15564;DHT22;7883;52.554;13.364;2023-02-15T08:07:33;4.20;99.90
15564;DHT22;7883;52.554;13.364;2023-02-15T08:09:59;4.20;99.90
15564;DHT22;7883;52.554;13.364;2023-02-15T08:12:26;4.30;99.90
15564;DHT22;7883;52.554;13.364;2023-02-15T08:14:55;4.40;99.90
15564;DHT22;7883;52.554;13.364;2023-02-15T08:17:22;4.50;99.90
15564;DHT22;7883;52.554;13.364;2023-02-15T08:19:49;4.30;99.90
15564;DHT22;7883;52.554;13.364;2023-02-15T08:22:16;4.00;99.90
15564;DHT22;7883;52.554;13.364;2023-02-15T08:24:43;4.00;99.90
15564;DHT22;7883;52.554;13.364;2023-02-15T08:27:11;4.20;99.90
15564;DHT22;7883;52.554;13.364;2023-02-15T08:29:39;4.30;99.90
15564;DHT22;7883;52.554;13.364;2023-02-15T08:32:10;4.40;99.90
15564;DHT22;7883;52.554;13.364;2023-02-15T08:34:39;4.40;99.90
15564;DHT22;7883;52.554;13.364;2023-02-15T08:37:06;4.50;99.90
15564;DHT22;7883;52.554;13.364;2023-02-15T08:39:33;4.40;99.90
15564;DHT22;7883;52.554;13.364;2023-02-15T08:42:01;4.50;99.90
15564;DHT22;7883;52.554;13.364;2023-02-15T08:44:28;4.60;99.90
15564;DHT22;7883;52.554;13.364;2023-02-15T08:46:56;4.50;99.90
15564;DHT22;7883;52.554;13.364;2023-02-15T08:49:30;4.60;99.90
15564;DHT22;7883;52.554;13.364;2023-02-15T08:51:56;4.70;99.90
15564;DHT22;7883;52.554;13.364;2023-02-15T08:54:24;4.80;99.90
15564;DHT22;7883;52.554;13.364;2023-02-15T08:56:51;4.80;99.90
15564;DHT22;7883;52.554;13.364;2023-02-15T08:59:19;4.70;99.90
15564;DHT22;7883;52.554;13.364;2023-02-15T09:01:48;4.70;99.90
15564;DHT22;7883;52.554;13.364;2023-02-15T09:04:15;4.80;99.90
15564;DHT22;7883;52.554;13.364;2023-02-15T09:06:45;4.70;99.90
15564;DHT22;7883;52.554;13.364;2023-02-15T09:09:12;4.60;99.90
15564;DHT22;7883;52.554;13.364;2023-02-15T09:11:43;4.70;99.90
15564;DHT22;7883;52.554;13.364;2023-02-15T09:14:11;4.70;99.90
15564;DHT22;7883;52.554;13.364;2023-02-15T09:16:39;4.50;99.90
15564;DHT22;7883;52.554;13.364;2023-02-15T09:19:07;4.70;99.90
15564;DHT22;7883;52.554;13.364;2023-02-15T09:21:36;4.90;99.90
15564;DHT22;7883;52.554;13.364;2023-02-15T09:24:07;5.00;99.90
15564;DHT22;7883;52.554;13.364;2023-02-15T09:26:36;5.00;99.90
15564;DHT22;7883;52.554;13.364;2023-02-15T09:29:08;5.10;99.90
15564;DHT22;7883;52.554;13.364;2023-02-15T09:31:39;5.10;99.90
15564;DHT22;7883;52.554;13.364;2023-02-15T09:34:07;4.90;99.90
15564;DHT22;7883;52.554;13.364;2023-02-15T09:36:36;4.90;99.90
15564;DHT22;7883;52.554;13.364;2023-02-15T09:39:07;4.90;99.90
15564;DHT22;7883;52.554;13.364;2023-02-15T09:42:10;4.90;99.90
15564;DHT22;7883;52.554;13.364;2023-02-15T09:45:07;5.10;99.90
15564;DHT22;7883;52.554;13.364;2023-02-15T09:47:55;4.90;99.90
15564;DHT22;7883;52.554;13.364;2023-02-15T09:50:29;4.80;99.90
15564;DHT22;7883;52.554;13.364;2023-02-15T09:53:17;4.90;99.90
15564;DHT22;7883;52.554;13.364;2023-02-15T09:55:54;5.10;99.90
15564;DHT22;7883;52.554;13.364;2023-02-15T09:58:32;5.20;99.90
15564;DHT22;7883;52.554;13.364;2023-02-15T10:01:05;5.20;99.90
15564;DHT22;7883;52.554;13.364;2023-02-15T10:03:45;5.30;99.90
15564;DHT22;7883;52.554;13.364;2023-02-15T10:06:32;5.30;99.90
15564;DHT22;7883;52.554;13.364;2023-02-15T10:09:10;5.20;99.90
15564;DHT22;7883;52.554;13.364;2023-02-15T10:11:55;5.10;99.90
15564;DHT22;7883;52.554;13.364;2023-02-15T10:14:50;4.90;99.90
15564;DHT22;7883;52.554;13.364;2023-02-15T10:17:39;5.00;99.90
15564;DHT22;7883;52.554;13.364;2023-02-15T10:20:17;5.10;99.90
15564;DHT22;7883;52.554;13.364;2023-02-15T10:23:04;5.10;99.90
15564;DHT22;7883;52.554;13.364;2023-02-15T10:25:42;5.20;99.90
15564;DHT22;7883;52.554;13.364;2023-02-15T10:28:17;5.30;99.90
15564;DHT22;7883;52.554;13.364;2023-02-15T10:30:47;5.40;99.90
15564;DHT22;7883;52.554;13.364;2023-02-15T10:33:31;5.50;99.90
15564;DHT22;7883;52.554;13.364;2023-02-15T10:36:10;5.50;99.90
15564;DHT22;7883;52.554;13.364;2023-02-15T10:38:45;5.50;99.90
15564;DHT22;7883;52.554;13.364;2023-02-15T10:41:26;5.60;99.90
15564;DHT22;7883;52.554;13.364;2023-02-15T10:44:08;5.70;99.90
15564;DHT22;7883;52.554;13.364;2023-02-15T10:49:59;5.60;99.90
15564;DHT22;7883;52.554;13.364;2023-02-15T10:52:42;5.70;99.90
15564;DHT22;7883;52.554;13.364;2023-02-15T10:55:17;5.70;99.90
15564;DHT22;7883;52.554;13.364;2023-02-15T10:57:53;5.80;99.90
15564;DHT22;7883;52.554;13.364;2023-02-15T11:00:29;5.80;99.90
15564;DHT22;7883;52.554;13.364;2023-02-15T11:03:23;5.90;99.90
15564;DHT22;7883;52.554;13.364;2023-02-15T11:06:02;5.90;99.90
15564;DHT22;7883;52.554;13.364;2023-02-15T11:08:34;5.90;99.90
15564;DHT22;7883;52.554;13.364;2023-02-15T11:11:05;5.90;99.90
15564;DHT22;7883;52.554;13.364;2023-02-15T11:13:38;6.00;99.90
15564;DHT22;7883;52.554;13.364;2023-02-15T11:16:14;6.00;99.90
15564;DHT22;7883;52.554;13.364;2023-02-15T11:18:44;6.10;99.90
15564;DHT22;7883;52.554;13.364;2023-02-15T11:21:19;6.20;99.90
15564;DHT22;7883;52.554;13.364;2023-02-15T11:23:47;6.20;99.90
15564;DHT22;7883;52.554;13.364;2023-02-15T11:26:19;6.30;99.90
15564;DHT22;7883;52.554;13.364;2023-02-15T11:28:51;6.40;99.90
15564;DHT22;7883;52.554;13.364;2023-02-15T11:31:23;6.40;99.90
15564;DHT22;7883;52.554;13.364;2023-02-15T11:33:53;6.40;99.90
15564;DHT22;7883;52.554;13.364;2023-02-15T11:36:25;6.50;99.90
15564;DHT22;7883;52.554;13.364;2023-02-15T11:38:58;6.50;99.90
15564;DHT22;7883;52.554;13.364;2023-02-15T11:41:28;6.50;99.90
15564;DHT22;7883;52.554;13.364;2023-02-15T11:43:59;6.60;99.90
15564;DHT22;7883;52.554;13.364;2023-02-15T11:46:33;6.60;99.90
15564;DHT22;7883;52.554;13.364;2023-02-15T11:51:12;6.60;99.90
15564;DHT22;7883;52.554;13.364;2023-02-15T11:53:42;6.60;99.90
15564;DHT22;7883;52.554;13.364;2023-02-15T11:56:15;6.70;99.90
15564;DHT22;7883;52.554;13.364;2023-02-15T11:59:57;6.70;99.90
15564;DHT22;7883;52.554;13.364;2023-02-15T12:02:26;6.80;99.90
15564;DHT22;7883;52.554;13.364;2023-02-15T12:04:58;6.80;99.90
15564;DHT22;7883;52.554;13.364;2023-02-15T12:07:30;6.90;99.90
15564;DHT22;7883;52.554;13.364;2023-02-15T12:10:03;7.00;99.90
15564;DHT22;7883;52.554;13.364;2023-02-15T12:12:34;7.00;99.90
15564;DHT22;7883;52.554;13.364;2023-02-15T12:15:12;7.10;99.90
15564;DHT22;7883;52.554;13.364;2023-02-15T12:17:48;7.10;99.90
15564;DHT22;7883;52.554;13.364;2023-02-15T12:20:25;7.20;99.90
15564;DHT22;7883;52.554;13.364;2023-02-15T12:22:59;7.20;99.90
15564;DHT22;7883;52.554;13.364;2023-02-15T12:25:35;7.20;99.90
15564;DHT22;7883;52.554;13.364;2023-02-15T12:28:15;7.30;99.90
15564;DHT22;7883;52.554;13.364;2023-02-15T12:30:48;7.30;99.90
15564;DHT22;7883;52.554;13.364;2023-02-15T12:33:28;7.30;99.90
15564;DHT22;7883;52.554;13.364;2023-02-15T12:35:59;7.30;99.90
15564;DHT22;7883;52.554;13.364;2023-02-15T12:38:30;7.40;99.90
15564;DHT22;7883;52.554;13.364;2023-02-15T12:41:02;7.50;99.90
15564;DHT22;7883;52.554;13.364;2023-02-15T12:43:32;7.50;99.90
15564;DHT22;7883;52.554;13.364;2023-02-15T12:46:31;7.50;99.90
15564;DHT22;7883;52.554;13.364;2023-02-15T12:49:17;7.60;99.90
15564;DHT22;7883;52.554;13.364;2023-02-15T12:51:48;7.70;99.90
15564;DHT22;7883;52.554;13.364;2023-02-15T12:54:30;7.80;99.90
15564;DHT22;7883;52.554;13.364;2023-02-15T12:57:15;7.80;99.90
15564;DHT22;7883;52.554;13.364;2023-02-15T12:59:51;7.90;99.90
15564;DHT22;7883;52.554;13.364;2023-02-15T13:02:30;8.00;99.90
15564;DHT22;7883;52.554;13.364;2023-02-15T13:05:07;8.00;99.90
15564;DHT22;7883;52.554;13.364;2023-02-15T13:07:45;8.10;99.90
15564;DHT22;7883;52.554;13.364;2023-02-15T13:10:23;8.10;99.90
15564;DHT22;7883;52.554;13.364;2023-02-15T13:12:51;8.20;99.90
15564;DHT22;7883;52.554;13.364;2023-02-15T13:15:29;8.20;99.90
15564;DHT22;7883;52.554;13.364;2023-02-15T13:18:00;8.30;99.90
15564;DHT22;7883;52.554;13.364;2023-02-15T13:20:28;8.40;99.90
15564;DHT22;7883;52.554;13.364;2023-02-15T13:22:59;8.50;99.90
15564;DHT22;7883;52.554;13.364;2023-02-15T13:25:32;8.50;99.90
15564;DHT22;7883;52.554;13.364;2023-02-15T13:28:03;8.50;99.90
15564;DHT22;7883;52.554;13.364;2023-02-15T13:30:33;8.50;99.90
15564;DHT22;7883;52.554;13.364;2023-02-15T13:33:05;8.50;99.90
15564;DHT22;7883;52.554;13.364;2023-02-15T13:35:39;8.60;99.90
15564;DHT22;7883;52.554;13.364;2023-02-15T13:38:21;8.70;99.90
15564;DHT22;7883;52.554;13.364;2023-02-15T13:40:53;8.70;99.90
15564;DHT22;7883;52.554;13.364;2023-02-15T13:43:35;8.80;99.90
15564;DHT22;7883;52.554;13.364;2023-02-15T13:46:16;8.90;99.90
15564;DHT22;7883;52.554;13.364;2023-02-15T13:49:09;8.90;99.90
15564;DHT22;7883;52.554;13.364;2023-02-15T13:51:42;8.90;99.90
15564;DHT22;7883;52.554;13.364;2023-02-15T13:54:28;8.90;99.90
15564;DHT22;7883;52.554;13.364;2023-02-15T13:57:14;8.90;99.90
15564;DHT22;7883;52.554;13.364;2023-02-15T13:59:56;9.00;99.90
15564;DHT22;7883;52.554;13.364;2023-02-15T14:06:07;9.10;99.90
15564;DHT22;7883;52.554;13.364;2023-02-15T14:08:57;9.10;99.90
15564;DHT22;7883;52.554;13.364;2023-02-15T14:11:32;9.10;99.90
15564;DHT22;7883;52.554;13.364;2023-02-15T14:17:13;9.10;99.90
15564;DHT22;7883;52.554;13.364;2023-02-15T14:19:46;9.10;99.90
15564;DHT22;7883;52.554;13.364;2023-02-15T14:22:25;9.20;99.90
15564;DHT22;7883;52.554;13.364;2023-02-15T14:25:05;9.20;99.90
15564;DHT22;7883;52.554;13.364;2023-02-15T14:27:45;9.20;99.90
15564;DHT22;7883;52.554;13.364;2023-02-15T14:30:20;9.20;99.90
15564;DHT22;7883;52.554;13.364;2023-02-15T14:32:57;9.20;99.90
15564;DHT22;7883;52.554;13.364;2023-02-15T14:35:29;9.30;99.90
15564;DHT22;7883;52.554;13.364;2023-02-15T14:38:11;9.30;99.90
15564;DHT22;7883;52.554;13.364;2023-02-15T14:40:46;9.30;99.90
15564;DHT22;7883;52.554;13.364;2023-02-15T14:43:37;9.30;99.90
15564;DHT22;7883;52.554;13.364;2023-02-15T14:46:19;9.20;99.90
15564;DHT22;7883;52.554;13.364;2023-02-15T14:48:50;9.20;99.90
15564;DHT22;7883;52.554;13.364;2023-02-15T14:51:56;9.20;99.90
15564;DHT22;7883;52.554;13.364;2023-02-15T14:54:54;9.20;99.90
15564;DHT22;7883;52.554;13.364;2023-02-15T14:57:26;9.20;99.90
15564;DHT22;7883;52.554;13.364;2023-02-15T14:59:54;9.10;99.90
15564;DHT22;7883;52.554;13.364;2023-02-15T15:02:29;9.20;99.90
15564;DHT22;7883;52.554;13.364;2023-02-15T15:05:02;9.20;99.90
15564;DHT22;7883;52.554;13.364;2023-02-15T15:07:40;9.20;99.90
15564;DHT22;7883;52.554;13.364;2023-02-15T15:10:40;9.20;99.90
15564;DHT22;7883;52.554;13.364;2023-02-15T15:13:35;9.10;99.90
15564;DHT22;7883;52.554;13.364;2023-02-15T15:19:10;9.10;99.90
15564;DHT22;7883;52.554;13.364;2023-02-15T15:21:56;9.10;99.90
15564;DHT22;7883;52.554;13.364;2023-02-15T15:24:52;9.10;99.90
15564;DHT22;7883;52.554;13.364;2023-02-15T15:27:54;9.10;99.90
15564;DHT22;7883;52.554;13.364;2023-02-15T15:36:53;9.10;99.90
15564;DHT22;7883;52.554;13.364;2023-02-15T15:39:56;9.00;99.90
15564;DHT22;7883;52.554;13.364;2023-02-15T15:42:36;8.90;99.90
15564;DHT22;7883;52.554;13.364;2023-02-15T15:45:33;8.90;99.90
15564;DHT22;7883;52.554;13.364;2023-02-15T15:51:09;8.90;99.90
15564;DHT22;7883;52.554;13.364;2023-02-15T15:53:42;9.00;99.90
15564;DHT22;7883;52.554;13.364;2023-02-15T15:56:14;9.00;99.90
15564;DHT22;7883;52.554;13.364;2023-02-15T15:58:48;9.00;99.90
15564;DHT22;7883;52.554;13.364;2023-02-15T16:01:24;8.90;99.90
15564;DHT22;7883;52.554;13.364;2023-02-15T16:03:54;8.90;99.90
15564;DHT22;7883;52.554;13.364;2023-02-15T16:06:31;8.90;99.90
15564;DHT22;7883;52.554;13.364;2023-02-15T16:09:10;8.90;99.90
15564;DHT22;7883;52.554;13.364;2023-02-15T16:11:37;8.90;99.90
15564;DHT22;7883;52.554;13.364;2023-02-15T16:14:11;8.80;99.90
15564;DHT22;7883;52.554;13.364;2023-02-15T16:16:41;8.80;99.90
15564;DHT22;7883;52.554;13.364;2023-02-15T16:19:20;8.70;99.90
15564;DHT22;7883;52.554;13.364;2023-02-15T16:21:48;8.70;99.90
15564;DHT22;7883;52.554;13.364;2023-02-15T16:24:31;8.70;99.90
15564;DHT22;7883;52.554;13.364;2023-02-15T16:27:21;8.60;99.90
15564;DHT22;7883;52.554;13.364;2023-02-15T16:29:50;8.60;99.90
15564;DHT22;7883;52.554;13.364;2023-02-15T16:32:22;8.50;99.90
15564;DHT22;7883;52.554;13.364;2023-02-15T16:34:51;8.50;99.90
15564;DHT22;7883;52.554;13.364;2023-02-15T16:37:21;8.40;99.90
15564;DHT22;7883;52.554;13.364;2023-02-15T16:39:51;8.30;99.90
15564;DHT22;7883;52.554;13.364;2023-02-15T16:42:20;8.20;99.90
15564;DHT22;7883;52.554;13.364;2023-02-15T16:44:51;8.30;99.90
15564;DHT22;7883;52.554;13.364;2023-02-15T16:47:23;8.20;99.90
15564;DHT22;7883;52.554;13.364;2023-02-15T16:49:53;8.20;99.90
15564;DHT22;7883;52.554;13.364;2023-02-15T16:52:22;8.20;99.90
15564;DHT22;7883;52.554;13.364;2023-02-15T16:54:55;8.10;99.90